Time;durP1;ratioP1;P1;durP2;ratioP2;P2;SDS_P1;SDS_P2;PMS_P1;PMS_P2;Temp;Humidity;BMP_temperature;BMP_pressure;BME280_temperature;BME280_humidity;BME280_pressure;Samples;Min_cycle;Max_cycle;Signal;HPM_P1;HPM_P2
2022/09/08 00:00:10;;;;;;;30.40;27.40;;;;;;;;;;5054818;28;20053;-80
2022/09/08 00:02:37;;;;;;;25.30;22.70;;;;;;;17.46;99.94;68714.28;5055460;28;20053;-80
2022/09/08 00:05:05;;;;;;;28.38;25.48;;;;;;;17.45;98.02;68708.34;5039022;28;20033;-80
2022/09/08 00:07:32;;;;;;;26.48;23.58;;;;;;;17.58;98.77;68722.63;5035431;28;20064;-80
2022/09/08 00:09:57;;;;;;;27.75;24.88;;;;;;;;;;5033962;28;20042;-78
2022/09/08 00:12:24;;;;;;;27.60;24.73;;;;;;;17.74;97.80;68740.84;5034368;28;20071;-79
2022/09/08 00:14:50;;;;;;;31.67;28.38;;;;;;;17.68;98.12;68742.09;5033914;28;20052;-80
2022/09/08 00:17:15;;;;;;;33.25;29.77;;;;;;;17.67;98.42;68727.50;5033241;28;20041;-79
2022/09/08 00:19:41;;;;;;;31.25;27.95;;;;;;;17.74;98.00;68746.25;5034254;28;20033;-79
2022/09/08 00:22:06;;;;;;;37.22;32.70;;;;;;;17.56;98.85;68720.88;5033604;28;20049;-79
2022/09/08 00:24:31;;;;;;;35.35;30.23;;;;;;;;;;5034613;28;20105;-80
2022/09/08 00:26:57;;;;;;;32.97;29.50;;;;;;;17.74;98.59;68748.38;5034194;28;20522;-79
2022/09/08 00:29:22;;;;;;;36.88;32.67;;;;;;;;;;5033312;28;20281;-78
2022/09/08 00:31:48;;;;;;;38.65;34.55;;;;;;;17.68;99.41;68734.00;5035675;28;20041;-79
2022/09/08 00:34:13;;;;;;;39.05;34.97;;;;;;;17.78;98.32;68745.47;5034369;28;20037;-79
2022/09/08 00:36:40;;;;;;;39.13;34.85;;;;;;;17.63;98.42;68727.72;5035270;28;20037;-79
2022/09/08 00:39:05;;;;;;;40.05;35.80;;;;;;;17.72;99.30;68738.00;5034593;28;20041;-79
2022/09/08 00:41:31;;;;;;;40.20;36.00;;;;;;;17.70;97.77;68735.72;5033232;28;20132;-79
2022/09/08 00:44:02;;;;;;;38.42;33.95;;;;;;;17.62;99.61;68727.16;5034406;28;20037;-79
2022/09/08 00:46:31;;;;;;;37.78;33.58;;;;;;;;;;5030849;28;20056;-78
2022/09/08 00:49:16;;;;;;;39.20;35.33;;;;;;;17.57;98.30;68722.03;5031889;28;20045;-79
2022/09/08 00:51:45;;;;;;;39.72;35.42;;;;;;;17.59;99.23;68724.31;5047287;28;20523;-79
2022/09/08 00:54:12;;;;;;;38.33;34.13;;;;;;;17.73;98.45;68737.03;5030445;28;20121;-78
2022/09/08 00:56:39;;;;;;;37.83;33.70;;;;;;;;;;5030744;28;20095;-79
2022/09/08 00:59:05;;;;;;;39.03;34.92;;;;;;;;;;5030207;28;20044;-79
2022/09/08 01:01:32;;;;;;;41.92;35.15;;;;;;;17.59;99.17;68723.75;5031060;28;20049;-79
2022/09/08 01:03:58;;;;;;;41.70;35.97;;;;;;;17.62;98.77;68732.00;5031540;28;20042;-79
2022/09/08 01:12:43;;;;;;;40.88;36.75;;;;;;;;;;5031013;28;20045;-79
2022/09/08 01:14:53;;;;;;;42.40;37.92;;;;;;;17.52;100.00;68721.13;5028830;28;20137;-78
2022/09/08 01:17:22;;;;;;;44.70;40.00;;;;;;;17.51;99.69;68720.56;5032326;28;20044;-79
2022/09/08 01:19:49;;;;;;;42.85;38.42;;;;;;;17.49;98.69;68718.28;5032850;28;20045;-78
2022/09/08 01:22:20;;;;;;;45.05;39.40;;;;;;;;;;5033473;28;20033;-79
2022/09/08 01:24:51;;;;;;;44.53;39.05;;;;;;;;;;5032729;28;20041;-78
2022/09/08 01:27:18;;;;;;;41.47;36.97;;;;;;;;;;5032474;28;20072;-79
2022/09/08 01:29:45;;;;;;;43.40;38.70;;;;;;;17.48;98.37;68711.75;5030743;28;20037;-79
2022/09/08 01:32:12;;;;;;;46.35;41.50;;;;;;;;;;5030433;28;20068;-78
2022/09/08 01:34:38;;;;;;;47.75;42.40;;;;;;;;;;5032156;28;20068;-79
2022/09/08 01:37:04;;;;;;;47.63;42.50;;;;;;;17.22;100.00;68682.66;5028699;28;20132;-79
2022/09/08 01:39:29;;;;;;;46.35;39.20;;;;;;;;;;5031690;28;20038;-79
2022/09/08 01:41:54;;;;;;;42.55;37.92;;;;;;;17.41;100.00;68703.78;5031079;28;20511;-79
2022/09/08 01:44:20;;;;;;;46.58;41.60;;;;;;;17.33;99.77;68695.22;5029752;28;20087;-78
2022/09/08 01:46:45;;;;;;;49.00;43.58;;;;;;;17.21;99.73;68681.53;5031761;28;20615;-79
2022/09/08 01:49:10;;;;;;;46.92;41.92;;;;;;;17.13;100.00;68672.41;5031644;28;20037;-78
2022/09/08 01:51:36;;;;;;;46.28;40.90;;;;;;;17.19;100.00;68676.56;5032405;28;20064;-77
2022/09/08 01:54:01;;;;;;;42.67;38.05;;;;;;;;;;5033388;28;20135;-79
2022/09/08 01:56:26;;;;;;;45.10;39.72;;;;;;;;;;5031211;28;20539;-79
2022/09/08 01:58:51;;;;;;;45.17;39.80;;;;;;;;;;5030989;28;20048;-79
2022/09/08 02:01:17;;;;;;;46.67;40.13;;;;;;;;;;5031016;28;20280;-78
2022/09/08 02:03:42;;;;;;;46.43;40.30;;;;;;;17.16;100.00;68681.22;5029362;28;20307;-79
2022/09/08 02:06:08;;;;;;;47.58;42.38;;;;;;;17.19;100.00;68684.06;5030982;28;20276;-79
2022/09/08 02:08:33;;;;;;;44.53;39.70;;;;;;;;;;5032186;28;20408;-78
2022/09/08 02:10:59;;;;;;;52.67;47.07;;;;;;;17.01;100.00;68664.09;5033199;28;20041;-79
2022/09/08 02:13:25;;;;;;;52.42;44.72;;;;;;;16.98;100.00;68655.31;5030678;28;21022;-79
2022/09/08 02:15:50;;;;;;;48.25;41.70;;;;;;;17.10;100.00;68669.00;5030817;28;20038;-79
2022/09/08 02:18:16;;;;;;;44.20;39.42;;;;;;;17.19;100.00;68684.63;5051424;22;20049;-77
2022/09/08 02:20:41;;;;;;;42.47;37.13;;;;;;;17.19;100.00;68684.63;5024914;28;20504;-77
2022/09/08 02:23:07;;;;;;;43.83;39.22;;;;;;;;;;5024731;28;20041;-78
2022/09/08 02:25:32;;;;;;;37.90;33.47;;;;;;;17.28;99.75;68689.50;5026471;28;20099;-77
2022/09/08 02:27:58;;;;;;;40.40;35.30;;;;;;;17.22;100.00;68682.09;5026342;28;20280;-77
2022/09/08 02:30:23;;;;;;;42.83;35.95;;;;;;;;;;5015946;28;20132;-76
2022/09/08 02:32:49;;;;;;;38.53;34.47;;;;;;;17.34;100.00;68695.78;5027277;28;20049;-76
2022/09/08 02:35:15;;;;;;;36.92;32.75;;;;;;;17.26;100.00;68692.63;5017216;28;20046;-77
2022/09/08 02:37:41;;;;;;;36.60;31.98;;;;;;;17.40;100.00;68702.06;5026556;28;20053;-77
2022/09/08 02:40:07;;;;;;;35.40;30.10;;;;;;;17.46;98.65;68714.28;5017858;28;20110;-78
2022/09/08 02:42:33;;;;;;;34.67;31.08;;;;;;;17.49;98.69;68710.22;5005128;28;20405;-77
2022/09/08 02:44:58;;;;;;;32.25;28.02;;;;;;;;;;5022809;28;20041;-77
2022/09/08 02:47:23;;;;;;;30.58;27.38;;;;;;;;;;5009176;28;20065;-76
2022/09/08 02:49:48;;;;;;;32.00;27.77;;;;;;;17.60;97.85;68730.25;4998410;28;20132;-77
2022/09/08 02:52:14;;;;;;;30.40;26.83;;;;;;;17.69;97.84;68734.59;4999970;28;20335;-76
2022/09/08 02:54:39;;;;;;;28.23;25.00;;;;;;;17.71;97.39;68736.88;5010296;28;20045;-77
2022/09/08 02:57:04;;;;;;;28.38;25.20;;;;;;;17.66;97.87;68731.16;5015510;28;20029;-76
2022/09/08 02:59:30;;;;;;;28.15;24.13;;;;;;;17.73;96.37;68744.53;5020178;28;20050;-76
2022/09/08 03:01:56;;;;;;;27.65;24.08;;;;;;;;;;5013264;28;20037;-77
2022/09/08 03:04:21;;;;;;;24.88;22.27;;;;;;;17.81;96.82;68748.31;5018820;28;20045;-78
2022/09/08 03:06:46;;;;;;;26.15;23.23;;;;;;;17.92;96.12;68765.66;5014974;28;20102;-78
2022/09/08 03:09:12;;;;;;;26.52;23.73;;;;;;;;;;5027800;28;20064;-77
2022/09/08 03:11:37;;;;;;;25.73;22.08;;;;;;;17.97;95.92;68766.00;5027729;28;20124;-77
2022/09/08 03:14:03;;;;;;;24.85;22.20;;;;;;;18.00;95.41;68775.38;5017927;28;20794;-77
2022/09/08 03:16:29;;;;;;;25.83;22.95;;;;;;;;;;5020694;28;20041;-77
2022/09/08 03:18:54;;;;;;;26.50;21.30;;;;;;;18.11;94.32;68786.78;5015842;28;20056;-77
2022/09/08 03:21:20;;;;;;;25.58;22.90;;;;;;;;;;5008987;28;20046;-77
2022/09/08 03:23:46;;;;;;;25.65;22.52;;;;;;;18.20;94.07;68792.25;5009645;28;20087;-77
2022/09/08 03:26:20;;;;;;;24.60;21.90;;;;;;;18.22;93.89;68793.97;5009503;28;20037;-77
2022/09/08 03:28:45;;;;;;;25.50;22.85;;;;;;;18.29;93.45;68801.38;5019913;28;20042;-78
2022/09/08 03:31:14;;;;;;;28.02;22.45;;;;;;;18.25;92.81;68797.94;5015549;28;20396;-77
2022/09/08 03:33:40;;;;;;;27.40;23.15;;;;;;;18.29;92.97;68801.94;5016418;28;20073;-77
2022/09/08 03:36:07;;;;;;;26.73;23.63;;;;;;;18.29;93.67;68801.38;5024121;28;20049;-77
2022/09/08 03:38:33;;;;;;;27.95;23.77;;;;;;;;;;5015509;28;20042;-77
2022/09/08 03:40:58;;;;;;;29.52;24.77;;;;;;;18.27;93.17;68800.25;5018641;28;20037;-77
2022/09/08 03:43:24;;;;;;;27.98;24.60;;;;;;;18.24;93.73;68796.22;5025660;28;20041;-77
2022/09/08 03:45:49;;;;;;;28.23;25.23;;;;;;;;;;5015708;28;20382;-78
2022/09/08 03:48:15;;;;;;;27.47;24.47;;;;;;;18.31;93.24;68803.66;5004637;28;20437;-77
2022/09/08 03:50:41;;;;;;;26.50;23.73;;;;;;;18.30;93.08;68799.81;5009891;28;20277;-76
2022/09/08 03:53:07;;;;;;;28.75;25.20;;;;;;;18.26;92.77;68803.91;5008555;28;20093;-77
2022/09/08 03:55:33;;;;;;;28.17;25.17;;;;;;;18.27;92.56;68800.25;5022153;28;20562;-77
2022/09/08 03:57:59;;;;;;;29.75;26.50;;;;;;;18.26;93.19;68804.47;5023208;28;20037;-77
2022/09/08 04:00:25;;;;;;;29.95;26.80;;;;;;;18.23;93.84;68795.09;5026677;28;20041;-77
2022/09/08 04:02:50;;;;;;;30.73;27.15;;;;;;;18.20;93.37;68792.25;5029424;28;20042;-77
2022/09/08 04:05:16;;;;;;;30.30;26.00;;;;;;;18.23;93.65;68792.41;5017941;28;20038;-78
2022/09/08 04:07:43;;;;;;;28.58;25.42;;;;;;;18.20;93.89;68792.25;5025652;28;20527;-77
2022/09/08 04:10:11;;;;;;;30.80;27.42;;;;;;;18.19;93.88;68790.53;5014336;28;20182;-77
2022/09/08 04:12:37;;;;;;;31.23;26.73;;;;;;;18.16;93.68;68787.69;5006691;28;20050;-77
2022/09/08 04:15:03;;;;;;;29.77;26.58;;;;;;;;;;5004245;28;20508;-78
2022/09/08 04:17:28;;;;;;;29.50;26.08;;;;;;;18.15;93.93;68791.91;5007835;28;20377;-78
2022/09/08 04:19:53;;;;;;;29.42;26.23;;;;;;;;;;5007931;28;20034;-78
2022/09/08 04:22:21;;;;;;;27.63;24.67;;;;;;;18.23;93.25;68795.66;5006141;28;20508;-77
2022/09/08 04:24:47;;;;;;;29.92;25.38;;;;;;;18.23;93.09;68789.72;5008427;28;20754;-77
2022/09/08 04:27:13;;;;;;;30.73;25.23;;;;;;;18.21;92.86;68793.41;5009681;28;20095;-78
2022/09/08 04:29:39;;;;;;;31.15;26.33;;;;;;;18.24;93.13;68794.13;5006286;28;20046;-78
2022/09/08 04:32:07;;;;;;;27.25;24.23;;;;;;;18.22;93.22;68791.84;5017328;28;20110;-78
2022/09/08 04:34:32;;;;;;;30.60;26.63;;;;;;;18.17;93.67;68786.13;5009080;28;20065;-78
2022/09/08 04:36:58;;;;;;;26.88;23.98;;;;;;;18.19;93.37;68791.09;5007501;28;20481;-78
2022/09/08 04:39:23;;;;;;;27.52;24.35;;;;;;;18.15;94.15;68786.53;5012526;28;20537;-77
2022/09/08 04:41:49;;;;;;;26.92;24.13;;;;;;;18.25;93.16;68795.25;5005899;28;20037;-77
2022/09/08 04:44:14;;;;;;;26.20;21.77;;;;;;;18.23;92.90;68792.41;5018194;28;20044;-77
2022/09/08 04:46:39;;;;;;;24.50;21.92;;;;;;;18.24;93.14;68802.22;5027556;28;20049;-78
2022/09/08 04:49:05;;;;;;;23.83;20.88;;;;;;;18.18;92.83;68784.59;5007104;28;20047;-78
2022/09/08 04:51:31;;;;;;;24.17;19.80;;;;;;;18.20;93.78;68797.63;5010829;28;20046;-77
2022/09/08 04:53:58;;;;;;;25.27;21.17;;;;;;;18.12;94.40;68783.09;5013773;28;20046;-79
2022/09/08 04:56:25;;;;;;;30.27;23.92;;;;;;;18.03;96.42;68778.78;5018787;28;20134;-79
2022/09/08 04:58:51;;;;;;;31.48;23.73;;;;;;;18.01;96.74;68770.53;5015462;28;20043;-78
2022/09/08 05:01:20;;;;;;;30.00;26.40;;;;;;;17.92;98.82;68760.28;5020767;28;20041;-77
2022/09/08 05:03:51;;;;;;;31.80;27.30;;;;;;;17.95;99.05;68763.69;5023498;28;20070;-78
2022/09/08 05:06:17;;;;;;;31.77;26.35;;;;;;;17.87;99.48;68754.59;5004427;28;20354;-79
2022/09/08 05:08:50;;;;;;;32.42;25.65;;;;;;;17.88;99.99;68756.28;5026527;28;20538;-78
2022/09/08 05:11:17;;;;;;;32.53;26.55;;;;;;;17.79;100.00;68746.59;5022074;28;20558;-78
2022/09/08 05:13:42;;;;;;;33.15;27.83;;;;;;;;;;5013317;28;20128;-78
2022/09/08 05:16:18;;;;;;;33.47;27.88;;;;;;;;;;4999971;28;20385;-78
2022/09/08 05:18:55;;;;;;;29.23;24.73;;;;;;;17.51;100.00;68715.19;5026251;28;20046;-79
2022/09/08 05:21:21;;;;;;;32.03;24.20;;;;;;;17.50;100.00;68710.78;5001661;28;20084;-78
2022/09/08 05:23:50;;;;;;;34.90;25.65;;;;;;;;;;5019958;28;20843;-78
2022/09/08 05:26:17;;;;;;;30.60;21.17;;;;;;;17.46;100.00;68714.28;5012792;28;20490;-79
2022/09/08 05:28:43;;;;;;;28.25;22.42;;;;;;;;;;5027574;28;20227;-79
2022/09/08 05:31:10;;;;;;;26.23;20.45;;;;;;;;;;5025138;28;20527;-79
2022/09/08 05:33:36;;;;;;;28.92;20.77;;;;;;;;;;5005651;28;20405;-79
2022/09/08 05:36:07;;;;;;;29.43;22.17;;;;;;;17.28;100.00;68689.50;5025210;28;20099;-78
2022/09/08 05:38:35;;;;;;;28.67;20.92;;;;;;;17.22;100.00;68688.06;5022292;28;20625;-78
2022/09/08 05:41:00;;;;;;;30.45;22.48;;;;;;;;;;5022455;28;20045;-78
2022/09/08 05:43:26;;;;;;;29.80;23.07;;;;;;;17.23;100.00;68683.81;5011070;28;20049;-78
2022/09/08 05:45:51;;;;;;;28.73;22.10;;;;;;;17.21;100.00;68686.91;5007988;28;20308;-76
2022/09/08 05:48:16;;;;;;;31.25;22.73;;;;;;;17.19;100.00;68678.69;5009306;28;20041;-77
2022/09/08 05:50:44;;;;;;;31.08;22.08;;;;;;;17.18;100.00;68678.13;5022719;28;20045;-77
2022/09/08 05:53:09;;;;;;;29.52;20.42;;;;;;;;;;5019212;28;20198;-78
2022/09/08 05:55:35;;;;;;;29.27;22.05;;;;;;;;;;5006156;28;20125;-79
2022/09/08 05:58:00;;;;;;;31.30;24.52;;;;;;;;;;4997350;28;20054;-77
2022/09/08 06:00:25;;;;;;;34.87;23.07;;;;;;;17.03;100.00;68661.56;5006008;28;20053;-78
2022/09/08 06:02:51;;;;;;;29.90;24.52;;;;;;;;;;5006744;28;20297;-76
2022/09/08 06:05:17;;;;;;;34.70;25.38;;;;;;;;;;5018996;28;20280;-77
2022/09/08 06:07:42;;;;;;;34.88;27.23;;;;;;;16.99;100.00;68654.31;5022440;28;20136;-76
2022/09/08 06:10:08;;;;;;;34.65;28.23;;;;;;;;;;5025193;28;20049;-78
2022/09/08 06:12:33;;;;;;;30.90;23.35;;;;;;;16.91;100.00;68648.44;5021119;28;20410;-80
2022/09/08 06:14:59;;;;;;;37.38;26.65;;;;;;;16.83;100.00;68638.75;5007267;28;20070;-76
2022/09/08 06:17:24;;;;;;;32.63;24.08;;;;;;;16.83;100.00;68636.06;5002952;28;20034;-79
2022/09/08 06:19:49;;;;;;;31.20;23.48;;;;;;;16.81;100.00;68637.06;5012889;28;20042;-78
2022/09/08 06:22:14;;;;;;;29.33;20.10;;;;;;;16.67;100.00;68621.06;5022468;28;20443;-79
2022/09/08 06:24:40;;;;;;;25.48;15.95;;;;;;;16.56;100.00;68613.91;5022487;28;20176;-77
2022/09/08 06:27:06;;;;;;;27.45;19.33;;;;;;;;;;5025835;28;20061;-80
2022/09/08 06:29:47;;;;;;;28.45;19.80;;;;;;;;;;5028027;28;20049;-79
2022/09/08 06:32:27;;;;;;;25.75;17.50;;;;;;;;;;5021564;28;20129;-78
2022/09/08 06:35:31;;;;;;;27.63;17.52;;;;;;;16.39;100.00;68589.72;5015109;28;20041;-79
2022/09/08 06:38:04;;;;;;;22.15;16.50;;;;;;;16.39;100.00;68595.66;5036835;28;20045;-81
2022/09/08 06:40:35;;;;;;;25.00;15.95;;;;;;;16.34;100.00;68584.59;5020297;28;20421;-79
2022/09/08 06:43:06;;;;;;;23.58;17.20;;;;;;;16.31;100.00;68581.16;5012379;28;20054;-78
2022/09/08 06:45:39;;;;;;;23.23;14.70;;;;;;;16.28;100.00;68583.09;5017275;28;20174;-77
2022/09/08 06:48:16;;;;;;;21.33;15.88;;;;;;;16.18;100.00;68566.91;5009895;28;20038;-79
2022/09/08 06:51:13;;;;;;;21.98;15.57;;;;;;;16.29;100.00;68583.69;5011956;28;20370;-79
2022/09/08 06:53:54;;;;;;;20.30;15.23;;;;;;;;;;5001234;28;20401;-82
2022/09/08 06:56:29;;;;;;;20.45;15.02;;;;;;;;;;5008013;28;20197;-78
2022/09/08 06:59:00;;;;;;;19.05;13.77;;;;;;;;;;5007740;28;20034;-78
2022/09/08 07:01:45;;;;;;;20.50;14.05;;;;;;;16.22;100.00;68571.47;5000843;28;20042;-79
2022/09/08 07:04:27;;;;;;;20.85;14.60;;;;;;;16.23;100.00;68577.41;5007793;28;20041;-80
2022/09/08 07:06:55;;;;;;;22.65;12.82;;;;;;;;;;5017106;28;20048;-79
2022/09/08 07:09:33;;;;;;;17.63;11.37;;;;;;;16.16;100.00;68564.06;4998409;28;20056;-78
2022/09/08 07:12:07;;;;;;;15.00;10.93;;;;;;;16.10;100.00;68563.16;5007158;28;20446;-78
2022/09/08 07:14:43;;;;;;;15.00;9.30;;;;;;;15.98;100.00;68544.69;4998794;28;20514;-78
2022/09/08 07:17:09;;;;;;;14.02;8.60;;;;;;;;;;4998993;28;20046;-79
2022/09/08 07:19:53;;;;;;;15.10;7.25;;;;;;;;;;5007044;28;20141;-79
2022/09/08 07:22:37;;;;;;;15.35;10.20;;;;;;;;;;5006850;28;20108;-78
2022/09/08 07:25:20;;;;;;;16.33;9.63;;;;;;;;;;5002113;28;20049;-78
2022/09/08 07:27:52;;;;;;;15.50;10.45;;;;;;;16.01;100.00;68553.47;5011355;28;20050;-78
2022/09/08 07:30:18;;;;;;;14.93;11.50;;;;;;;;;;5009397;28;20046;-78
2022/09/08 07:32:49;;;;;;;15.38;10.88;;;;;;;16.00;100.00;68546.41;5018079;28;20042;-79
2022/09/08 07:35:24;;;;;;;14.00;10.48;;;;;;;;;;5022134;28;20045;-79
2022/09/08 07:37:53;;;;;;;18.15;11.90;;;;;;;16.05;100.00;68556.88;5027359;28;20047;-78
2022/09/08 07:40:28;;;;;;;14.52;11.35;;;;;;;;;;5029526;28;20404;-78
2022/09/08 07:42:58;;;;;;;13.98;11.35;;;;;;;16.04;100.00;68555.75;5023026;28;20041;-78
2022/09/08 07:45:49;;;;;;;12.57;9.30;;;;;;;15.94;100.00;68545.50;5016931;28;20061;-78
2022/09/08 07:48:27;;;;;;;15.00;9.98;;;;;;;15.89;100.00;68534.44;5017355;28;20045;-77
2022/09/08 07:51:14;;;;;;;12.38;8.48;;;;;;;15.88;100.00;68538.66;5019626;28;20048;-79
2022/09/08 07:53:58;;;;;;;14.05;10.23;;;;;;;;;;5013410;28;20033;-78
2022/09/08 07:56:32;;;;;;;13.07;8.82;;;;;;;15.95;100.00;68541.25;5009694;28;20037;-79
2022/09/08 07:59:27;;;;;;;13.30;8.23;;;;;;;15.96;100.00;68542.41;5006607;28;20049;-77
2022/09/08 08:02:19;;;;;;;13.75;9.85;;;;;;;15.95;100.00;68546.63;5023360;28;20076;-80
2022/09/08 08:04:56;;;;;;;14.00;9.02;;;;;;;15.98;100.00;68550.06;5011199;28;20042;-80
2022/09/08 08:07:31;;;;;;;14.70;10.63;;;;;;;15.92;100.00;68537.84;5012207;28;20042;-78
2022/09/08 08:10:06;;;;;;;14.80;10.60;;;;;;;15.95;100.00;68546.06;5016318;28;20105;-80
2022/09/08 08:12:47;;;;;;;11.90;10.20;;;;;;;16.01;100.00;68547.53;5017586;28;20141;-79
2022/09/08 08:15:22;;;;;;;16.25;10.27;;;;;;;16.01;100.00;68545.41;5005593;28;20050;-78
2022/09/08 08:17:56;;;;;;;12.20;9.55;;;;;;;15.90;100.00;68535.56;4996508;28;20413;-78
2022/09/08 08:20:28;;;;;;;15.88;9.73;;;;;;;;;;5031879;28;20038;-78
2022/09/08 08:23:09;;;;;;;13.45;9.60;;;;;;;15.90;100.00;68535.00;5030627;28;20096;-78
2022/09/08 08:25:44;;;;;;;14.43;10.27;;;;;;;15.90;100.00;68535.00;5022333;28;21137;-77
2022/09/08 08:28:16;;;;;;;13.25;8.45;;;;;;;;;;5018537;28;20130;-77
2022/09/08 08:30:43;;;;;;;10.90;8.40;;;;;;;;;;5011288;28;20041;-78
2022/09/08 08:33:21;;;;;;;12.73;8.90;;;;;;;15.94;100.00;68545.50;5021639;28;20042;-77
2022/09/08 08:35:49;;;;;;;14.00;9.52;;;;;;;15.92;100.00;68537.84;5009066;28;20540;-78
2022/09/08 08:38:20;;;;;;;13.68;10.68;;;;;;;15.94;100.00;68539.53;5023269;28;20064;-78
2022/09/08 08:40:49;;;;;;;14.05;9.48;;;;;;;;;;5016692;28;20046;-78
2022/09/08 08:43:36;;;;;;;11.70;9.10;;;;;;;15.90;100.00;68535.00;5011539;28;20041;-77
2022/09/08 08:46:07;;;;;;;13.00;8.75;;;;;;;15.92;100.00;68542.66;5035061;28;20052;-78
2022/09/08 08:48:38;;;;;;;10.40;7.85;;;;;;;;;;5023665;28;20052;-77
2022/09/08 08:51:03;;;;;;;12.57;7.88;;;;;;;;;;5014899;28;20781;-78
2022/09/08 08:53:54;;;;;;;11.80;7.27;;;;;;;15.76;100.00;68514.25;5014886;28;20048;-78
2022/09/08 08:56:23;;;;;;;8.98;7.55;;;;;;;;;;5014046;28;20292;-77
2022/09/08 08:58:58;;;;;;;12.10;7.90;;;;;;;15.81;100.00;68530.69;5014976;28;20042;-78
2022/09/08 09:01:26;;;;;;;10.98;7.90;;;;;;;15.76;100.00;68524.97;5020481;28;20041;-77
2022/09/08 09:04:06;;;;;;;12.30;8.57;;;;;;;15.78;100.00;68527.25;5031341;28;20073;-77
2022/09/08 09:06:53;;;;;;;12.70;8.20;;;;;;;15.77;100.00;68518.06;5016641;28;20065;-78
2022/09/08 09:09:29;;;;;;;11.50;8.10;;;;;;;;;;5019211;28;20072;-78
2022/09/08 09:12:20;;;;;;;11.68;8.02;;;;;;;15.83;100.00;68527.59;5016564;28;20044;-78
2022/09/08 09:15:31;;;;;;;11.57;7.60;;;;;;;15.80;100.00;68529.53;5016559;28;20682;-78
2022/09/08 09:18:18;;;;;;;13.98;9.85;;;;;;;15.87;100.00;68536.94;5032369;28;20049;-78
2022/09/08 09:20:47;;;;;;;12.98;10.07;;;;;;;15.88;100.00;68538.66;5019832;28;20057;-77
2022/09/08 09:23:27;;;;;;;12.00;9.53;;;;;;;15.82;100.00;68526.44;5012960;28;20029;-77
2022/09/08 09:25:57;;;;;;;13.32;9.85;;;;;;;;;;5018802;28;20289;-77
2022/09/08 09:29:04;;;;;;;12.65;8.90;;;;;;;15.90;100.00;68540.94;5009599;28;20050;-77
2022/09/08 09:31:38;;;;;;;13.05;8.80;;;;;;;;;;5000782;28;20038;-78
2022/09/08 09:34:15;;;;;;;13.40;9.18;;;;;;;15.84;100.00;68533.53;5005774;28;20505;-78
2022/09/08 09:36:59;;;;;;;13.18;9.38;;;;;;;15.81;100.00;68525.31;5017667;28;20099;-78
2022/09/08 09:39:43;;;;;;;13.82;9.25;;;;;;;;;;5008857;28;20091;-78
2022/09/08 09:42:31;;;;;;;14.50;9.15;;;;;;;15.93;100.00;68538.97;5016578;28;20077;-76
2022/09/08 09:45:19;;;;;;;14.05;9.32;;;;;;;15.97;100.00;68548.34;4995959;28;20038;-79
2022/09/08 09:47:56;;;;;;;13.75;9.95;;;;;;;15.96;100.00;68539.72;5021032;28;20049;-80
2022/09/08 09:50:34;;;;;;;13.02;9.75;;;;;;;16.05;100.00;68556.88;5013756;28;20114;-80
2022/09/08 09:53:24;;;;;;;13.93;9.00;;;;;;;16.14;100.00;68567.16;5025066;28;20048;-77
2022/09/08 09:56:15;;;;;;;13.73;8.73;;;;;;;16.09;100.00;68562.03;4997456;28;20077;-77
2022/09/08 09:59:34;;;;;;;11.93;7.72;;;;;;;16.10;100.00;68557.22;5019712;28;20168;-77
2022/09/08 10:02:08;;;;;;;13.38;10.18;;;;;;;;;;4969943;28;20054;-77
2022/09/08 10:04:52;;;;;;;11.85;8.05;;;;;;;16.16;100.00;68564.06;5015973;28;20052;-77
2022/09/08 10:07:24;;;;;;;11.27;9.02;;;;;;;;;;5011125;28;20278;-77
2022/09/08 10:10:07;;;;;;;11.25;7.97;;;;;;;;;;5011713;28;20537;-77
2022/09/08 10:12:42;;;;;;;9.90;6.20;;;;;;;16.20;100.00;68568.63;5020382;28;20489;-77
2022/09/08 10:15:43;;;;;;;9.35;6.53;;;;;;;16.26;100.00;68580.84;5010760;28;20292;-77
2022/09/08 10:18:27;;;;;;;11.13;6.75;;;;;;;;;;5026533;28;20132;-77
2022/09/08 10:20:59;;;;;;;12.20;7.95;;;;;;;;;;5016391;28;20092;-77
2022/09/08 10:23:52;;;;;;;11.25;6.82;;;;;;;16.39;100.00;68595.09;5020640;28;20504;-77
2022/09/08 10:26:33;;;;;;;10.95;8.02;;;;;;;;;;5027984;28;20516;-77
2022/09/08 10:29:13;;;;;;;12.45;7.70;;;;;;;;;;5026200;28;20504;-77
2022/09/08 10:31:57;;;;;;;10.02;7.35;;;;;;;;;;5028812;28;20057;-77
2022/09/08 10:34:41;;;;;;;14.05;8.77;;;;;;;16.72;100.00;68623.53;5008869;28;20042;-76
2022/09/08 10:37:18;;;;;;;14.27;11.20;;;;;;;16.83;100.00;68639.34;5003768;28;20038;-77
2022/09/08 10:40:15;;;;;;;12.35;10.13;;;;;;;16.89;100.00;68645.63;5011946;28;20056;-77
2022/09/08 10:42:44;;;;;;;14.63;11.27;;;;;;;16.99;100.00;68657.00;5008817;28;20058;-77
2022/09/08 10:45:24;;;;;;;16.13;12.07;;;;;;;17.01;100.00;68656.03;5013655;28;20046;-76
2022/09/08 10:48:21;;;;;;;15.82;11.20;;;;;;;17.00;100.00;68658.13;5016381;28;20050;-77
2022/09/08 10:51:19;;;;;;;15.65;10.07;;;;;;;16.95;100.00;68657.84;5000686;28;20053;-77
2022/09/08 10:53:57;;;;;;;;;;;;;;;17.07;100.00;68665.56;5004084;28;20034;-77
2022/09/08 10:56:29;;;;;;;14.23;10.68;;;;;;;17.10;100.00;68669.00;5005792;28;19925;-77
2022/09/08 10:59:11;;;;;;;13.60;11.73;;;;;;;17.15;100.00;68674.69;5007974;28;20026;-77
2022/09/08 11:01:36;;;;;;;15.10;10.38;;;;;;;;;;5009071;28;20042;-77
2022/09/08 11:04:34;;;;;;;15.00;10.33;;;;;;;17.53;100.00;68722.28;5024283;28;20050;-78
2022/09/08 11:07:10;;;;;;;13.18;10.07;;;;;;;;;;5004038;28;20046;-78
2022/09/08 11:09:49;;;;;;;15.13;9.65;;;;;;;17.75;100.00;68742.00;5020232;28;20038;-78
2022/09/08 11:12:38;;;;;;;15.77;9.70;;;;;;;17.88;100.00;68761.09;5031075;28;20412;-78
2022/09/08 11:15:03;;;;;;;11.52;9.23;;;;;;;;;;5034073;28;20526;-78
2022/09/08 11:17:33;;;;;;;13.07;9.33;;;;;;;;;;5015810;28;20126;-78
2022/09/08 11:20:10;;;;;;;11.25;8.75;;;;;;;17.98;100.00;68767.72;5007580;28;20046;-79
2022/09/08 11:22:53;;;;;;;10.75;8.52;;;;;;;18.11;100.00;68781.97;5007391;28;20037;-78
2022/09/08 11:25:21;;;;;;;12.68;8.70;;;;;;;18.23;100.00;68795.09;5009762;28;20409;-78
2022/09/08 11:27:59;;;;;;;9.93;7.82;;;;;;;18.17;100.00;68788.25;5010268;28;20092;-78
2022/09/08 11:30:40;;;;;;;11.95;8.40;;;;;;;18.21;100.00;68793.41;5013415;28;20493;-78
2022/09/08 11:33:33;;;;;;;11.85;9.13;;;;;;;18.37;100.00;68811.09;5015096;28;20053;-78
2022/09/08 11:36:10;;;;;;;12.25;8.55;;;;;;;18.52;100.00;68827.63;5023883;28;20041;-79
2022/09/08 11:39:06;;;;;;;11.38;7.95;;;;;;;18.40;100.00;68814.50;5023135;28;20037;-78
2022/09/08 11:41:55;;;;;;;10.68;8.50;;;;;;;18.31;99.86;68804.22;5014920;28;20408;-79
2022/09/08 11:44:29;;;;;;;11.32;6.82;;;;;;;18.33;99.60;68805.97;5012573;28;20125;-78
2022/09/08 11:47:05;;;;;;;11.07;8.38;;;;;;;18.60;100.00;68836.78;5007038;28;20073;-78
2022/09/08 11:49:49;;;;;;;10.57;7.80;;;;;;;;;;5005877;28;20041;-79
2022/09/08 11:52:21;;;;;;;9.38;7.00;;;;;;;18.80;97.17;68859.06;5008338;28;20041;-79
2022/09/08 11:54:58;;;;;;;9.18;6.55;;;;;;;18.83;95.80;68862.50;5004572;28;20061;-79
2022/09/08 11:57:44;;;;;;;11.30;7.18;;;;;;;19.25;98.55;68906.03;5005573;28;20121;-78
2022/09/08 12:00:46;;;;;;;8.25;6.05;;;;;;;19.22;94.24;68903.22;5012592;28;20547;-78
2022/09/08 12:03:20;;;;;;;8.43;6.03;;;;;;;;;;4997771;28;20104;-79
2022/09/08 12:06:24;;;;;;;8.32;6.15;;;;;;;19.27;91.78;68911.03;5011237;28;20046;-79
2022/09/08 12:09:17;;;;;;;8.75;6.47;;;;;;;19.33;91.20;68912.50;4996034;28;20054;-79
2022/09/08 12:11:49;;;;;;;10.02;6.15;;;;;;;19.45;91.03;68928.31;5013446;28;20049;-79
2022/09/08 12:14:37;;;;;;;9.27;6.47;;;;;;;19.60;90.82;68945.47;5013920;28;20033;-79
2022/09/08 12:17:28;;;;;;;9.60;6.22;;;;;;;19.63;90.11;68951.03;5028696;28;20057;-79
2022/09/08 12:19:53;;;;;;;8.43;5.78;;;;;;;;;;5032352;28;20774;-79
2022/09/08 12:22:30;;;;;;;8.17;5.97;;;;;;;19.56;90.16;68940.91;5019507;28;20123;-80
2022/09/08 12:25:33;;;;;;;8.73;5.55;;;;;;;19.77;90.22;68964.94;5005756;28;20655;-79
2022/09/08 12:28:07;;;;;;;6.78;4.97;;;;;;;19.75;87.78;68962.06;5023239;28;20141;-79
2022/09/08 12:30:51;;;;;;;6.38;4.90;;;;;;;;;;5029565;28;20099;-79
2022/09/08 12:33:25;;;;;;;8.77;5.18;;;;;;;19.76;88.82;68965.91;5020955;28;20099;-79